Aviation Digital Data Service (ADDS)

Output produced by METARs form (0039 UTC 24 April 2014)
found at http://www.aviationweather.gov/adds/metars/
 
KMIV 232354Z AUTO 29015G24KT 10SM FEW060 12/02 A2979 RMK AO2 PK WND 29031/2317 SLP087 T01170022 10156 20117 53023
KMIV 232334Z 2400/2424 31015G25KT P6SM SCT050 
     FM240400 30013KT P6SM SCT250 
     FM241300 31015G25KT P6SM SKC